Time;durP1;ratioP1;P1;durP2;ratioP2;P2;SDS_P1;SDS_P2;PMS_P1;PMS_P2;Temp;Humidity;BMP_temperature;BMP_pressure;BME280_temperature;BME280_humidity;BME280_pressure;Samples;Min_cycle;Max_cycle;Signal;HPM_P1;HPM_P2
2022/06/30 00:01:44;;;;;;;9.50;8.70;;;;;;;22.06;69.29;100285.03;105953;1273;24304;-73
2022/06/30 00:04:11;;;;;;;9.20;8.40;;;;;;;22.07;69.27;100285.52;105963;1277;22554;-77
2022/06/30 00:06:37;;;;;;;10.60;9.60;;;;;;;22.02;69.35;100279.30;105913;1274;24280;-71
2022/06/30 00:09:03;;;;;;;9.40;8.50;;;;;;;22.01;69.49;100281.19;106009;1275;24235;-72
2022/06/30 00:11:29;;;;;;;11.00;8.50;;;;;;;21.99;69.57;100279.69;105989;1277;24414;-74
2022/06/30 00:13:57;;;;;;;12.10;8.60;;;;;;;21.97;69.69;100277.11;106004;1274;22550;-73
2022/06/30 00:16:24;;;;;;;10.10;9.10;;;;;;;21.95;69.55;100272.86;106077;1272;22550;-71
2022/06/30 00:18:50;;;;;;;10.60;9.60;;;;;;;21.97;69.67;100272.75;106429;1271;22785;-72
2022/06/30 00:21:16;;;;;;;9.90;8.90;;;;;;;21.96;69.63;100270.46;106237;1271;25487;-72
2022/06/30 00:23:43;;;;;;;10.40;9.30;;;;;;;21.97;69.86;100262.19;106210;1271;24478;-72
2022/06/30 00:26:09;;;;;;;10.40;9.40;;;;;;;21.97;69.90;100260.45;106222;1271;23926;-73
2022/06/30 00:28:35;;;;;;;10.70;9.10;;;;;;;21.97;69.97;100262.23;106508;1270;23514;-73
2022/06/30 00:31:01;;;;;;;8.90;8.10;;;;;;;21.93;70.04;100262.62;106530;1271;25262;-77
2022/06/30 00:33:28;;;;;;;10.30;9.00;;;;;;;21.91;70.07;100260.91;106229;1271;25392;-75
2022/06/30 00:35:54;;;;;;;10.50;9.30;;;;;;;21.86;70.04;100258.16;106250;1271;23383;-75
2022/06/30 00:38:20;;;;;;;10.60;9.60;;;;;;;21.86;70.14;100257.84;106165;1271;22584;-76
2022/06/30 00:40:46;;;;;;;9.70;8.70;;;;;;;21.85;70.40;100256.61;106334;1271;22608;-75
2022/06/30 00:43:13;;;;;;;10.10;9.20;;;;;;;21.84;70.36;100251.83;106397;1271;25535;-75
2022/06/30 00:45:41;;;;;;;10.30;8.90;;;;;;;21.81;70.48;100256.52;106287;1271;22693;-77
2022/06/30 00:48:09;;;;;;;10.10;9.20;;;;;;;21.78;70.53;100253.08;106558;1271;25393;-74
2022/06/30 00:50:36;;;;;;;10.10;9.10;;;;;;;21.76;70.69;100255.48;106209;1271;25409;-76
2022/06/30 00:53:04;;;;;;;9.70;8.80;;;;;;;21.78;70.76;100249.88;106102;1271;22644;-78
2022/06/30 00:55:31;;;;;;;9.60;8.70;;;;;;;21.78;70.79;100245.76;106205;1271;25564;-73
2022/06/30 00:58:00;;;;;;;9.90;9.00;;;;;;;21.76;70.78;100247.64;106480;1270;24184;-74
2022/06/30 01:00:30;;;;;;;9.10;8.20;;;;;;;21.72;70.88;100242.46;106351;1271;22537;-73
2022/06/30 01:02:58;;;;;;;8.70;7.90;;;;;;;21.73;70.92;100246.19;106339;1270;22849;-71
2022/06/30 01:05:25;;;;;;;10.00;9.00;;;;;;;21.72;71.04;100242.49;106349;1268;25264;-73
2022/06/30 01:08:02;;;;;;;10.90;8.60;;;;;;;21.72;71.08;100239.25;106159;1268;24302;-75
2022/06/30 01:13:15;;;;;;;10.40;9.40;;;;;;;21.72;71.23;100241.77;106228;1268;24237;-72
2022/06/30 01:15:41;;;;;;;10.90;9.20;;;;;;;21.69;71.29;100238.87;106293;1270;22551;-71
2022/06/30 01:18:07;;;;;;;8.80;7.80;;;;;;;21.70;71.33;100242.96;106242;1271;24216;-73
2022/06/30 01:20:34;;;;;;;8.80;8.10;;;;;;;21.68;71.38;100238.55;106147;1271;24803;-74
2022/06/30 01:23:18;;;;;;;9.70;8.40;;;;;;;21.71;71.50;100236.42;106153;1270;22861;-73
2022/06/30 01:25:46;;;;;;;9.80;8.90;;;;;;;21.72;71.39;100237.11;106184;1271;25326;-73
2022/06/30 01:28:12;;;;;;;10.20;9.20;;;;;;;21.71;71.38;100239.30;106367;1270;23408;-75
2022/06/30 01:30:40;;;;;;;9.60;8.60;;;;;;;21.68;71.35;100236.23;106263;1271;22533;-75
2022/06/30 01:33:07;;;;;;;9.60;8.40;;;;;;;21.66;71.43;100242.30;106276;1271;23915;-72
2022/06/30 01:35:33;;;;;;;9.60;8.70;;;;;;;21.65;71.57;100240.70;106157;1270;22846;-71
2022/06/30 01:37:59;;;;;;;14.40;8.90;;;;;;;21.65;71.72;100243.58;106421;1270;25431;-75
2022/06/30 01:40:28;;;;;;;10.10;9.10;;;;;;;21.67;71.71;100239.91;106237;1271;22588;-71
2022/06/30 01:42:54;;;;;;;9.60;8.70;;;;;;;21.64;71.78;100240.09;106128;1273;22579;-74
2022/06/30 01:45:22;;;;;;;10.80;8.40;;;;;;;21.63;71.83;100237.22;106257;1270;25272;-74
2022/06/30 01:47:50;;;;;;;10.80;8.00;;;;;;;21.65;71.88;100229.95;106079;1271;24274;-76
2022/06/30 01:50:19;;;;;;;9.30;8.40;;;;;;;21.64;71.75;100225.55;105944;1276;24956;-75
2022/06/30 01:52:46;;;;;;;9.90;8.60;;;;;;;21.63;71.98;100221.67;105921;1276;22792;-75
2022/06/30 01:55:13;;;;;;;9.10;8.10;;;;;;;21.61;71.91;100218.89;105771;1277;22551;-78
2022/06/30 01:57:40;;;;;;;9.50;8.40;;;;;;;21.61;72.03;100223.43;105923;1276;24424;-73
2022/06/30 02:00:11;;;;;;;10.90;7.90;;;;;;;21.58;72.10;100222.48;106118;1277;25442;-75
2022/06/30 02:02:38;;;;;;;9.00;8.10;;;;;;;21.56;72.06;100220.64;105956;1278;25546;-78
2022/06/30 02:05:06;;;;;;;10.10;8.20;;;;;;;21.59;72.31;100225.48;105882;1277;23086;-73
2022/06/30 02:07:35;;;;;;;9.70;8.80;;;;;;;21.60;72.18;100223.30;105865;1276;22534;-74
2022/06/30 02:10:05;;;;;;;9.20;7.80;;;;;;;21.57;72.18;100224.52;106179;1270;22537;-76
2022/06/30 02:12:46;;;;;;;11.10;9.20;;;;;;;21.55;72.42;100222.86;106106;1271;22525;-72
2022/06/30 02:15:33;;;;;;;8.40;7.30;;;;;;;21.50;72.37;100215.59;106209;1271;26537;-72
2022/06/30 02:18:02;;;;;;;9.20;8.30;;;;;;;21.52;72.34;100211.91;106269;1270;26493;-74
2022/06/30 02:20:29;;;;;;;8.40;7.60;;;;;;;21.50;72.27;100215.79;106204;1272;24110;-72
2022/06/30 02:22:57;;;;;;;8.50;7.60;;;;;;;21.52;72.47;100220.88;106316;1270;22772;-73
2022/06/30 02:25:25;;;;;;;9.40;8.50;;;;;;;21.53;72.37;100219.36;106305;1271;22561;-73
2022/06/30 02:27:52;;;;;;;9.70;8.70;;;;;;;21.54;72.42;100214.83;106460;1270;22597;-78
2022/06/30 02:30:18;;;;;;;9.10;8.20;;;;;;;21.55;72.43;100208.86;106287;1270;23288;-74
2022/06/30 02:32:46;;;;;;;11.40;9.00;;;;;;;21.56;72.51;100209.90;106190;1272;22714;-73
2022/06/30 02:35:13;;;;;;;9.70;8.90;;;;;;;21.53;72.37;100205.23;106375;1270;22538;-73
2022/06/30 02:37:40;;;;;;;9.80;8.90;;;;;;;21.57;72.36;100209.33;106243;1270;24232;-75
2022/06/30 02:40:09;;;;;;;12.40;9.00;;;;;;;21.58;72.41;100214.98;106356;1270;22549;-71
2022/06/30 02:42:35;;;;;;;9.30;8.40;;;;;;;21.59;72.53;100214.73;106398;1268;22588;-74
2022/06/30 02:45:02;;;;;;;12.10;9.30;;;;;;;21.55;72.32;100217.33;106350;1268;24286;-72
2022/06/30 02:47:34;;;;;;;9.30;8.00;;;;;;;21.55;72.46;100221.05;106233;1270;22576;-77
2022/06/30 02:50:03;;;;;;;9.20;8.30;;;;;;;21.56;72.40;100224.04;106253;1270;25323;-73
2022/06/30 02:52:34;;;;;;;9.20;8.20;;;;;;;21.56;72.43;100220.81;106354;1270;25394;-76
2022/06/30 02:55:01;;;;;;;8.80;8.00;;;;;;;21.57;72.46;100220.23;106199;1270;22557;-74
2022/06/30 02:57:27;;;;;;;9.90;8.90;;;;;;;21.54;72.49;100214.86;106397;1271;25357;-71
2022/06/30 02:59:54;;;;;;;8.80;7.90;;;;;;;21.57;72.54;100218.61;106162;1270;25605;-86
2022/06/30 03:02:20;;;;;;;9.60;7.80;;;;;;;21.54;72.40;100225.96;106231;1271;25265;-76
2022/06/30 03:04:47;;;;;;;9.60;8.10;;;;;;;21.53;72.42;100224.19;106326;1269;25323;-76
2022/06/30 03:07:14;;;;;;;10.60;8.60;;;;;;;21.55;72.58;100223.71;106240;1271;23871;-73
2022/06/30 03:09:42;;;;;;;9.40;8.60;;;;;;;21.56;72.69;100229.05;106363;1271;25261;-73
2022/06/30 03:12:08;;;;;;;10.10;9.00;;;;;;;21.55;72.45;100235.58;106444;1274;22651;-70
2022/06/30 03:14:34;;;;;;;9.00;8.20;;;;;;;21.55;72.66;100234.35;105822;1274;25450;-74
2022/06/30 03:17:01;;;;;;;9.10;7.70;;;;;;;21.55;72.62;100231.48;105848;1274;23934;-74
2022/06/30 03:19:27;;;;;;;10.10;8.00;;;;;;;21.53;72.49;100235.48;105902;1274;22556;-71
2022/06/30 03:21:54;;;;;;;9.40;8.40;;;;;;;21.53;72.51;100238.54;106130;1275;22628;-75
2022/06/30 03:24:21;;;;;;;9.70;8.70;;;;;;;21.51;72.48;100242.75;105956;1274;22694;-75
2022/06/30 03:26:49;;;;;;;13.00;9.00;;;;;;;21.50;72.71;100246.20;105992;1274;25505;-77
2022/06/30 03:29:15;;;;;;;10.70;8.40;;;;;;;21.51;72.75;100245.61;106046;1274;25466;-75
2022/06/30 03:31:41;;;;;;;8.40;7.70;;;;;;;21.50;72.54;100244.61;105662;1277;24104;-75
2022/06/30 03:34:08;;;;;;;9.00;8.10;;;;;;;21.49;72.61;100243.59;106011;1277;22552;-71
2022/06/30 03:36:34;;;;;;;9.50;8.60;;;;;;;21.50;72.79;100242.61;105887;1277;25379;-74
2022/06/30 03:39:00;;;;;;;9.90;8.90;;;;;;;21.56;72.86;100248.25;105720;1277;23499;-74
2022/06/30 03:41:26;;;;;;;11.30;9.20;;;;;;;21.60;72.73;100250.91;105769;1276;24344;-74
2022/06/30 03:43:53;;;;;;;10.50;9.00;;;;;;;21.60;72.60;100255.52;105890;1276;22560;-74
2022/06/30 03:46:20;;;;;;;8.90;8.10;;;;;;;21.63;72.59;100258.39;105820;1276;24347;-74
2022/06/30 03:48:46;;;;;;;10.00;9.00;;;;;;;21.67;72.67;100257.10;105895;1276;25341;-74
2022/06/30 03:51:12;;;;;;;8.80;8.00;;;;;;;21.69;72.67;100260.39;106088;1273;25500;-71
2022/06/30 03:53:56;;;;;;;8.90;8.10;;;;;;;21.72;72.58;100256.83;106077;1270;22558;-74
2022/06/30 03:56:24;;;;;;;10.80;9.80;;;;;;;21.71;72.38;100257.61;106027;1270;22709;-72
2022/06/30 03:58:51;;;;;;;10.80;9.10;;;;;;;21.66;72.34;100261.83;106056;1270;24282;-74
2022/06/30 04:01:17;;;;;;;11.30;9.40;;;;;;;21.65;72.64;100258.09;106140;1271;23006;-76
2022/06/30 04:03:44;;;;;;;11.30;8.40;;;;;;;21.70;72.56;100257.64;106194;1270;24383;-74
2022/06/30 04:06:10;;;;;;;10.30;9.30;;;;;;;21.73;72.39;100253.51;106343;1270;22554;-73
2022/06/30 04:08:36;;;;;;;10.20;9.20;;;;;;;21.77;72.37;100255.98;106254;1270;25365;-73
2022/06/30 04:11:02;;;;;;;10.30;8.70;;;;;;;21.83;72.25;100253.52;106396;1270;22674;-73
2022/06/30 04:13:30;;;;;;;10.50;9.30;;;;;;;21.84;72.20;100253.11;106085;1270;24385;-74
2022/06/30 04:15:56;;;;;;;9.30;8.50;;;;;;;21.84;72.07;100252.55;106180;1270;23066;-78
2022/06/30 04:18:23;;;;;;;11.70;8.50;;;;;;;21.87;72.01;100257.41;106156;1270;24272;-79
2022/06/30 04:20:49;;;;;;;9.70;8.70;;;;;;;21.90;72.11;100256.87;106084;1269;325563;-78
2022/06/30 04:23:15;;;;;;;10.50;9.40;;;;;;;21.94;72.07;100251.12;106267;1271;22547;-79
2022/06/30 04:25:42;;;;;;;10.90;9.80;;;;;;;21.96;72.01;100251.29;106105;1270;24241;-75
2022/06/30 04:28:08;;;;;;;11.70;8.80;;;;;;;21.98;71.85;100255.54;106106;1270;22568;-77
2022/06/30 04:33:19;;;;;;;10.10;8.70;;;;;;;22.12;71.84;100259.20;106216;1271;22563;-76
2022/06/30 04:35:45;;;;;;;9.80;8.80;;;;;;;22.20;71.83;100253.31;106040;1270;25319;-78
2022/06/30 04:38:11;;;;;;;10.30;9.40;;;;;;;22.26;71.82;100257.45;106011;1276;23272;-76
2022/06/30 04:43:22;;;;;;;11.00;9.60;;;;;;;22.42;71.61;100265.31;106728;1276;25394;-78
2022/06/30 04:45:48;;;;;;;8.80;7.90;;;;;;;22.46;71.34;100267.35;107977;1276;22530;-87
2022/06/30 04:48:15;;;;;;;9.00;8.10;;;;;;;22.53;71.44;100266.79;109005;1276;22597;-85
2022/06/30 04:50:42;;;;;;;10.70;8.50;;;;;;;22.60;71.22;100265.48;108991;1276;22722;-86
2022/06/30 04:53:08;;;;;;;11.30;8.50;;;;;;;22.68;71.19;100266.42;109053;1276;22544;-90
2022/06/30 04:55:36;;;;;;;9.90;8.90;;;;;;;22.78;71.01;100266.16;108681;1276;22547;-84
2022/06/30 04:58:02;;;;;;;10.60;9.50;;;;;;;22.88;70.87;100264.52;106303;1276;23939;-76
2022/06/30 05:00:29;;;;;;;10.50;9.40;;;;;;;22.92;70.84;100268.20;105883;1278;22674;-76
2022/06/30 05:02:55;;;;;;;9.80;8.90;;;;;;;22.96;70.41;100268.45;105679;1280;22875;-80
2022/06/30 05:05:22;;;;;;;12.00;8.70;;;;;;;22.94;70.43;100263.71;105552;1281;24470;-78
2022/06/30 05:07:48;;;;;;;10.40;8.80;;;;;;;23.02;70.43;100266.50;105154;1287;23896;-76
2022/06/30 05:10:14;;;;;;;9.80;8.80;;;;;;;23.10;70.31;100268.52;105722;1287;22592;-75
2022/06/30 05:12:40;;;;;;;12.30;9.30;;;;;;;23.16;70.31;100269.75;106413;1287;25391;-75
2022/06/30 05:15:07;;;;;;;12.10;8.60;;;;;;;23.20;70.06;100273.05;106543;1287;22554;-86
2022/06/30 05:17:34;;;;;;;10.40;9.10;;;;;;;23.24;70.11;100273.33;106745;1285;22577;-79
2022/06/30 05:20:02;;;;;;;9.90;8.60;;;;;;;23.29;69.87;100274.48;106322;1287;22580;-74
2022/06/30 05:22:29;;;;;;;9.60;8.20;;;;;;;23.32;69.72;100273.36;107250;1282;22513;-77
2022/06/30 05:27:44;;;;;;;10.00;8.60;;;;;;;23.45;69.86;100271.87;106301;1278;22578;-78
2022/06/30 05:30:11;;;;;;;19.20;9.10;;;;;;;23.53;69.70;100270.10;106377;1273;22710;-77
2022/06/30 05:32:37;;;;;;;14.20;10.00;;;;;;;23.58;69.43;100267.42;106303;1278;22708;-77
2022/06/30 05:35:05;;;;;;;13.60;9.90;;;;;;;23.66;69.09;100272.48;106256;1277;22557;-76
2022/06/30 05:37:31;;;;;;;11.20;9.30;;;;;;;23.70;68.93;100278.66;108487;1276;22650;-81
2022/06/30 05:39:58;;;;;;;16.00;9.20;;;;;;;23.73;68.87;100277.59;108090;1276;25293;-86
2022/06/30 05:42:24;;;;;;;12.00;8.40;;;;;;;23.74;68.81;100278.55;106105;1276;25251;-78
2022/06/30 05:44:50;;;;;;;11.90;9.50;;;;;;;23.78;68.72;100273.13;105869;1276;24291;-80
2022/06/30 05:47:17;;;;;;;13.20;9.60;;;;;;;23.85;68.81;100271.95;105929;1277;22781;-77
2022/06/30 05:49:43;;;;;;;13.10;9.40;;;;;;;23.88;68.51;100274.63;105861;1276;23203;-78
2022/06/30 05:52:09;;;;;;;10.00;9.00;;;;;;;23.93;68.82;100277.02;106314;1270;22547;-83
2022/06/30 05:54:36;;;;;;;10.80;9.60;;;;;;;23.95;68.71;100283.31;106158;1270;24343;-78
2022/06/30 05:57:03;;;;;;;10.60;9.40;;;;;;;23.97;68.47;100281.36;106041;1270;22708;-78
2022/06/30 05:59:32;;;;;;;13.30;10.00;;;;;;;24.01;68.50;100285.08;106231;1271;22734;-76
2022/06/30 06:01:59;;;;;;;12.00;8.60;;;;;;;24.06;68.42;100288.89;106184;1270;25307;-76
2022/06/30 06:04:26;;;;;;;12.90;9.30;;;;;;;24.13;68.48;100287.52;106161;1272;25750;-78
2022/06/30 06:06:52;;;;;;;10.70;8.80;;;;;;;24.22;67.98;100285.50;106157;1270;22537;-81
2022/06/30 06:09:19;;;;;;;10.90;9.30;;;;;;;24.32;67.97;100278.34;106188;1270;22866;-77
2022/06/30 06:11:45;;;;;;;10.60;8.80;;;;;;;24.35;67.93;100274.73;106154;1270;23211;-77
2022/06/30 06:14:12;;;;;;;10.10;8.90;;;;;;;24.40;67.70;100279.09;106064;1270;25441;-85
2022/06/30 06:16:38;;;;;;;12.20;10.00;;;;;;;24.44;67.26;100284.70;106062;1270;22535;-79
2022/06/30 06:19:05;;;;;;;11.90;9.60;;;;;;;24.45;67.29;100283.05;106147;1270;22594;-78
2022/06/30 06:21:34;;;;;;;14.40;9.00;;;;;;;24.49;67.35;100286.02;106057;1270;24279;-80
2022/06/30 06:24:00;;;;;;;9.60;8.60;;;;;;;24.48;66.99;100278.88;106282;1270;25416;-75
2022/06/30 06:26:26;;;;;;;10.50;8.80;;;;;;;24.54;67.14;100279.24;105889;1276;22730;-78
2022/06/30 06:29:13;;;;;;;12.40;9.30;;;;;;;24.63;67.00;100278.23;105829;1276;22735;-78
2022/06/30 06:31:40;;;;;;;11.10;9.20;;;;;;;24.66;66.66;100278.36;105538;1281;22571;-78
2022/06/30 06:34:07;;;;;;;12.50;10.00;;;;;;;24.60;66.71;100275.90;105270;1281;25498;-79
2022/06/30 06:36:33;;;;;;;11.30;9.10;;;;;;;24.58;66.83;100278.39;105545;1281;22698;-80
2022/06/30 06:39:00;;;;;;;11.20;9.60;;;;;;;24.59;67.20;100281.36;104715;1287;24260;-79
2022/06/30 06:41:26;;;;;;;10.10;9.10;;;;;;;24.66;67.42;100284.16;104909;1287;22582;-78
2022/06/30 06:43:53;;;;;;;11.80;9.20;;;;;;;24.71;67.10;100292.79;104761;1285;22593;-78
2022/06/30 06:46:22;;;;;;;10.00;8.80;;;;;;;24.74;66.99;100293.80;105214;1284;23326;-78
2022/06/30 06:48:49;;;;;;;9.10;8.30;;;;;;;24.84;66.95;100294.41;104668;1287;22598;-78
2022/06/30 06:51:15;;;;;;;10.90;8.70;;;;;;;24.94;66.86;100291.34;104379;1290;24333;-77
2022/06/30 06:53:42;;;;;;;10.30;9.30;;;;;;;25.03;66.88;100278.15;104387;1293;26122;-77
2022/06/30 06:56:08;;;;;;;10.70;9.30;;;;;;;25.11;66.84;100273.61;103890;1294;22690;-79
2022/06/30 06:58:34;;;;;;;10.60;8.70;;;;;;;25.14;66.83;100271.21;104488;1291;25411;-79
2022/06/30 07:01:01;;;;;;;11.10;8.80;;;;;;;25.19;66.60;100273.55;104466;1291;22803;-79
2022/06/30 07:03:29;;;;;;;15.50;8.80;;;;;;;25.26;66.29;100277.75;104658;1287;23962;-80
2022/06/30 07:05:56;;;;;;;10.00;9.00;;;;;;;25.33;66.52;100276.35;104966;1286;25382;-79
2022/06/30 07:08:22;;;;;;;9.70;8.70;;;;;;;25.40;66.31;100278.01;105585;1281;23085;-78
2022/06/30 07:10:49;;;;;;;9.90;9.00;;;;;;;25.42;65.95;100268.48;105827;1276;24247;-79
2022/06/30 07:13:15;;;;;;;9.90;9.10;;;;;;;25.45;66.05;100266.46;105778;1276;23931;-75
2022/06/30 07:15:41;;;;;;;10.40;9.40;;;;;;;25.53;66.06;100268.22;106229;1270;22556;-79
2022/06/30 07:18:08;;;;;;;14.60;10.30;;;;;;;25.62;65.84;100264.54;106246;1270;25615;-79
2022/06/30 07:20:34;;;;;;;12.10;9.00;;;;;;;25.69;65.78;100266.71;106203;1270;22537;-78
2022/06/30 07:23:00;;;;;;;15.10;10.10;;;;;;;25.71;65.64;100264.77;106111;1270;22546;-77
2022/06/30 07:25:47;;;;;;;9.90;9.00;;;;;;;25.75;65.67;100266.13;106366;1270;22714;-78
2022/06/30 07:28:13;;;;;;;9.90;8.90;;;;;;;25.82;65.60;100270.84;106199;1270;22543;-80
2022/06/30 07:30:58;;;;;;;12.40;9.40;;;;;;;25.87;65.53;100274.23;106249;1270;24354;-78
2022/06/30 07:33:24;;;;;;;13.30;8.80;;;;;;;25.93;65.51;100275.60;106263;1270;22617;-77
2022/06/30 07:35:50;;;;;;;10.30;9.50;;;;;;;26.02;65.56;100284.27;106484;1270;22541;-80
2022/06/30 07:38:16;;;;;;;12.10;10.50;;;;;;;26.12;65.21;100288.73;105747;1276;23195;-80
2022/06/30 07:41:01;;;;;;;10.50;9.40;;;;;;;26.19;64.92;100295.95;105774;1276;22570;-80
2022/06/30 07:43:46;;;;;;;10.60;9.50;;;;;;;26.27;64.58;100297.38;105921;1276;22885;-79
2022/06/30 07:46:30;;;;;;;10.60;9.50;;;;;;;26.40;64.40;100303.85;105854;1276;25603;-79
2022/06/30 07:49:01;;;;;;;9.70;8.80;;;;;;;26.50;64.54;100299.46;105748;1276;25334;-79
2022/06/30 07:51:27;;;;;;;10.20;9.20;;;;;;;26.59;64.24;100299.09;105913;1276;23507;-81
2022/06/30 07:53:53;;;;;;;10.70;9.60;;;;;;;26.71;63.90;100310.96;105977;1276;22542;-79
2022/06/30 07:56:20;;;;;;;10.70;9.60;;;;;;;26.81;63.93;100312.95;106220;1270;22604;-89
2022/06/30 07:58:47;;;;;;;13.00;9.70;;;;;;;26.87;63.42;100310.84;106233;1270;22718;-79
2022/06/30 08:01:13;;;;;;;11.60;9.60;;;;;;;26.85;62.91;100310.30;106314;1270;24208;-82
2022/06/30 08:03:42;;;;;;;11.90;10.00;;;;;;;26.86;62.89;100311.79;106365;1270;25392;-79
2022/06/30 08:06:08;;;;;;;12.50;9.20;;;;;;;26.90;62.65;100318.52;106445;1270;25248;-79
2022/06/30 08:08:34;;;;;;;11.20;9.80;;;;;;;26.97;62.62;100314.55;106541;1270;25720;-79
2022/06/30 08:11:00;;;;;;;10.50;9.60;;;;;;;27.05;62.96;100315.77;106642;1270;22733;-79
2022/06/30 08:13:32;;;;;;;9.60;8.70;;;;;;;27.16;62.65;100315.27;106738;1270;24318;-78
2022/06/30 08:15:59;;;;;;;12.50;10.30;;;;;;;27.22;62.31;100321.09;106456;1270;25255;-79
2022/06/30 08:18:25;;;;;;;11.10;10.10;;;;;;;27.24;62.04;100321.12;106378;1270;23462;-78
2022/06/30 08:20:51;;;;;;;10.90;9.70;;;;;;;27.35;62.34;100323.29;106223;1270;25674;-76
2022/06/30 08:23:18;;;;;;;10.10;9.30;;;;;;;27.45;62.25;100319.23;105843;1275;25390;-78
2022/06/30 08:25:44;;;;;;;10.80;9.50;;;;;;;27.47;61.80;100317.98;105730;1276;22891;-78
2022/06/30 08:28:10;;;;;;;10.40;9.60;;;;;;;27.45;61.38;100316.73;105725;1275;23783;-78
2022/06/30 08:30:36;;;;;;;11.10;9.90;;;;;;;27.45;61.75;100317.60;105676;1276;25504;-78
2022/06/30 08:33:03;;;;;;;11.00;10.00;;;;;;;27.48;61.68;100319.20;105594;1276;22603;-79
2022/06/30 08:35:29;;;;;;;10.60;9.50;;;;;;;27.49;61.70;100321.61;105547;1276;22530;-79
2022/06/30 08:38:15;;;;;;;11.20;10.10;;;;;;;27.47;61.66;100324.35;105687;1275;22510;-78
2022/06/30 08:43:28;;;;;;;;;;;;;;;27.43;61.33;100311.30;106178;1271;22534;-78
2022/06/30 08:45:54;;;;;;;10.30;9.40;;;;;;;27.40;61.72;100308.98;105995;1270;22586;-76
2022/06/30 08:48:21;;;;;;;12.90;10.30;;;;;;;27.48;62.13;100303.23;106032;1270;22573;-78
2022/06/30 08:50:48;;;;;;;9.80;8.90;;;;;;;27.58;62.16;100306.60;106014;1270;23017;-77
2022/06/30 08:53:16;;;;;;;12.40;9.90;;;;;;;27.69;62.10;100304.31;106209;1271;24567;-76
2022/06/30 08:55:45;;;;;;;12.00;9.70;;;;;;;27.76;62.11;100295.58;106238;1271;24237;-79
2022/06/30 08:58:12;;;;;;;10.80;9.90;;;;;;;27.88;61.80;100293.48;106072;1270;25387;-79
2022/06/30 09:00:39;;;;;;;10.50;9.40;;;;;;;28.07;61.62;100288.00;106178;1273;22587;-79
2022/06/30 09:03:06;;;;;;;15.90;10.40;;;;;;;28.26;61.68;100285.65;106109;1274;22601;-79
2022/06/30 09:05:33;;;;;;;10.80;9.90;;;;;;;28.45;61.32;100277.67;106369;1273;23152;-77
2022/06/30 09:07:59;;;;;;;15.20;10.10;;;;;;;28.53;60.67;100281.90;106013;1270;25252;-77
2022/06/30 09:10:51;;;;;;;11.20;10.10;;;;;;;28.57;60.48;100279.20;106015;1270;25932;-79
2022/06/30 09:13:17;;;;;;;10.80;9.60;;;;;;;28.66;60.18;100278.83;105794;1276;23922;-78
2022/06/30 09:15:44;;;;;;;11.50;9.60;;;;;;;28.84;60.54;100275.58;105703;1276;22557;-79
2022/06/30 09:18:25;;;;;;;11.10;10.10;;;;;;;29.02;60.18;100270.75;105839;1276;25403;-81
2022/06/30 09:20:52;;;;;;;13.20;10.30;;;;;;;29.18;59.70;100268.42;105952;1277;23118;-78
2022/06/30 09:23:24;;;;;;;11.90;10.70;;;;;;;29.35;59.64;100269.13;106275;1277;22650;-79
2022/06/30 09:25:53;;;;;;;11.90;9.80;;;;;;;29.51;59.06;100273.45;107531;1277;22583;-78
2022/06/30 09:28:58;;;;;;;13.40;10.10;;;;;;;29.64;58.90;100274.48;106704;1277;22649;-80
2022/06/30 09:31:44;;;;;;;12.80;10.00;;;;;;;29.84;58.42;100269.60;105786;1277;26629;-78
2022/06/30 09:34:16;;;;;;;12.40;9.60;;;;;;;29.97;58.31;100263.16;105679;1279;24225;-76
2022/06/30 09:36:43;;;;;;;10.70;9.40;;;;;;;30.11;57.70;100256.73;106016;1278;22949;-78
2022/06/30 09:39:13;;;;;;;10.90;9.80;;;;;;;30.25;57.43;100252.98;106001;1280;25380;-80
2022/06/30 09:41:44;;;;;;;11.10;9.90;;;;;;;30.42;57.35;100252.06;106116;1277;24452;-79
2022/06/30 09:44:24;;;;;;;9.50;8.70;;;;;;;30.60;56.63;100247.98;105767;1279;25460;-78
2022/06/30 09:46:58;;;;;;;10.80;9.30;;;;;;;30.75;56.48;100249.06;105919;1277;22541;-78
2022/06/30 09:49:33;;;;;;;10.50;8.90;;;;;;;30.87;56.11;100252.52;105907;1277;25255;-77
2022/06/30 09:52:02;;;;;;;10.30;9.40;;;;;;;31.00;55.36;100248.55;106137;1277;25398;-77
2022/06/30 09:54:32;;;;;;;11.10;9.10;;;;;;;31.10;55.03;100240.15;105792;1277;22538;-86
2022/06/30 09:57:04;;;;;;;11.20;9.40;;;;;;;31.24;54.51;100233.11;105854;1277;24221;-81
2022/06/30 09:59:31;;;;;;;9.90;8.90;;;;;;;31.37;54.34;100229.27;105861;1278;24244;-84
2022/06/30 10:02:01;;;;;;;10.20;9.10;;;;;;;31.57;53.83;100235.89;106041;1272;25661;-79
2022/06/30 10:04:27;;;;;;;10.70;9.30;;;;;;;31.73;53.54;100234.59;106215;1273;25390;-81
2022/06/30 10:06:53;;;;;;;14.40;9.40;;;;;;;31.85;53.31;100235.62;106299;1272;25323;-77
2022/06/30 10:09:20;;;;;;;10.10;9.30;;;;;;;31.94;52.45;100233.21;107194;1270;25293;-79
2022/06/30 10:11:50;;;;;;;9.90;9.00;;;;;;;32.06;52.07;100232.91;107617;1270;25256;-75
2022/06/30 10:14:17;;;;;;;12.30;8.50;;;;;;;32.19;51.83;100233.20;107702;1270;22699;-76
2022/06/30 10:16:44;;;;;;;10.40;8.70;;;;;;;32.31;51.55;100228.37;107021;1270;22589;-77
2022/06/30 10:19:11;;;;;;;8.90;8.00;;;;;;;32.43;51.08;100229.35;106194;1270;25250;-80
2022/06/30 10:21:38;;;;;;;15.10;9.40;;;;;;;32.56;50.77;100228.89;106259;1270;22556;-77
2022/06/30 10:24:05;;;;;;;9.80;8.50;;;;;;;32.66;50.52;100222.44;106750;1270;25261;-76
2022/06/30 10:29:20;;;;;;;11.60;9.50;;;;;;;32.98;49.77;100221.91;106109;1270;23948;-80
2022/06/30 10:31:58;;;;;;;10.60;9.50;;;;;;;33.08;49.43;100221.27;106197;1273;25388;-79
2022/06/30 10:34:32;;;;;;;10.00;8.70;;;;;;;33.19;48.84;100215.95;106266;1270;22599;-78
2022/06/30 10:37:11;;;;;;;9.50;8.00;;;;;;;33.33;48.51;100212.98;106517;1270;24369;-83
2022/06/30 10:39:56;;;;;;;8.60;7.70;;;;;;;33.49;48.34;100209.56;106387;1270;23050;-80
2022/06/30 10:42:49;;;;;;;8.60;7.70;;;;;;;33.70;47.62;100203.16;106405;1270;22532;-79
2022/06/30 10:45:55;;;;;;;11.10;8.50;;;;;;;33.86;47.11;100199.18;106264;1270;22547;-80
2022/06/30 10:48:22;;;;;;;9.10;8.00;;;;;;;34.00;46.73;100199.10;106081;1270;25491;-79
2022/06/30 10:50:50;;;;;;;8.80;7.20;;;;;;;34.14;46.12;100200.11;106206;1270;22542;-79
2022/06/30 10:53:41;;;;;;;8.40;6.80;;;;;;;34.21;45.57;100198.45;106162;1270;24539;-80
2022/06/30 10:56:08;;;;;;;8.80;7.00;;;;;;;34.29;45.04;100201.73;106108;1270;25247;-79
2022/06/30 10:58:35;;;;;;;9.10;7.00;;;;;;;34.41;44.69;100198.18;105688;1276;22558;-81
2022/06/30 11:01:02;;;;;;;7.70;7.00;;;;;;;34.48;44.41;100193.15;105550;1276;22545;-77
2022/06/30 11:03:29;;;;;;;8.60;7.60;;;;;;;34.68;43.90;100192.41;105527;1280;25252;-79
2022/06/30 11:05:57;;;;;;;8.50;7.70;;;;;;;34.79;43.26;100193.36;105660;1279;22540;-79
2022/06/30 11:11:34;;;;;;;10.10;8.10;;;;;;;35.05;42.90;100183.20;105583;1280;22492;-79
2022/06/30 11:14:04;;;;;;;8.30;7.50;;;;;;;35.13;42.82;100182.30;105511;1280;22594;-79
2022/06/30 11:16:31;;;;;;;8.20;7.40;;;;;;;35.25;42.44;100176.85;105704;1277;25606;-78
2022/06/30 11:18:59;;;;;;;9.20;8.10;;;;;;;35.33;41.98;100180.74;106066;1277;22786;-82
2022/06/30 11:21:28;;;;;;;8.80;8.00;;;;;;;35.39;42.02;100175.88;106705;1271;22802;-79
2022/06/30 11:24:00;;;;;;;9.00;7.10;;;;;;;35.48;41.86;100171.81;107947;1273;22596;-77
2022/06/30 11:29:17;;;;;;;7.40;6.70;;;;;;;35.70;41.20;100170.20;106114;1270;22647;-81
2022/06/30 11:31:43;;;;;;;10.50;7.50;;;;;;;35.70;41.06;100165.67;106305;1270;23372;-77
2022/06/30 11:34:20;;;;;;;8.20;7.40;;;;;;;35.77;40.81;100163.66;106256;1270;22565;-76
2022/06/30 11:36:47;;;;;;;11.10;8.10;;;;;;;35.83;40.57;100163.80;106269;1270;23329;-78
2022/06/30 11:39:20;;;;;;;11.20;7.10;;;;;;;35.73;40.42;100166.85;106249;1270;25463;-78
2022/06/30 11:41:55;;;;;;;9.50;7.30;;;;;;;35.85;40.19;100164.20;106337;1273;22586;-78